M I D A S
Marine Information and Data Acquisition System
Tripno 1001 of the Zeeleeuw from 2005-08-04 09:37:51 to 2005-08-04 16:00:00
Back to CruiseResearch ActivitiesStationsMapUnderway DataData graphs

EquipmentUnitsComments
TimeDGPSUTC
LatitudeDGPSDM.mWGS84
LongitudeDGPSDM.mWGS84
SpeedMeteo Stationm/sRelative wind speed
DirectionMeteo StationdegRelative wind direction
TemperatureMeteo Stationdeg CelciusAir temperature
PressureMeteo StationPaAtmospheric pressure
HumidityMeteo Station%Relative humidity
Missing or incorrect values are displayed as -999
Metereological data collected by the RV Zeeleeuw from 2005-08-04 09:39:46 to 2005-08-16 12:13:05
Time Latitude Longitude Speed Direction Temperature Pressure Humidity
2005-08-04 09:40 51°13.618 2°56.023 6.6 209 18 102560 66
2005-08-04 09:41 51°13.653 2°55.917 6.1 202 17.9 102560 64
2005-08-04 09:42 51°13.677 2°55.822 7.6 226 17.7 102570 66
2005-08-04 09:43 51°13.686 2°55.759 4.4 256 17.6 102560 67
2005-08-04 09:44 51°13.681 2°55.755 5.8 273 17.6 102560 68
2005-08-04 09:45 51°13.721 2°55.763 8.7 5 17.7 102530 68
2005-08-04 09:46 51°13.783 2°55.669 7.9 19 17.6 102530 66
2005-08-04 09:47 51°13.899 2°55.575 9.5 7 17.6 102540 66
2005-08-04 09:48 51°14.027 2°55.486 4.4 355 17.6 102540 66
2005-08-04 09:49 51°14.154 2°55.39 8.8 355 17.8 102520 67
2005-08-04 09:50 51°14.282 2°55.221 11.2 2 17.8 102520 67
2005-08-04 09:51 51°14.39 2°54.991 12 -999 17.7 102530 66
2005-08-04 09:52 51°14.552 2°54.845 12 337 17.6 102510 67
2005-08-04 09:53 51°14.74 2°54.751 12.3 342 17.6 102490 65
2005-08-04 09:54 51°14.934 2°54.659 12.4 340 17.6 102500 66
2005-08-04 09:55 51°15.125 2°54.566 11.9 333 17.6 102510 66
2005-08-04 09:56 51°15.318 2°54.472 12.5 335 17.6 102520 68
2005-08-04 09:57 51°15.511 2°54.379 11.6 343 17.6 102530 69
2005-08-04 09:58 51°15.698 2°54.288 11.2 342 17.6 102520 68
2005-08-04 09:59 51°15.885 2°54.193 13.1 339 17.6 102520 68
2005-08-04 10:00 51°16.031 2°54.136 9.4 228 17.7 102530 70
2005-08-04 10:01 51°16.113 2°54.146 7.2 307 17.7 102540 69
2005-08-04 10:02 51°16.17 2°54.19 8 285 17.7 102550 69
2005-08-04 10:03 51°16.223 2°54.26 7.5 289 17.8 102550 69
2005-08-04 10:04 51°16.259 2°54.299 6.4 286 17.8 102550 67
2005-08-04 10:05 51°16.264 2°54.317 7.7 275 17.8 102550 66
2005-08-04 10:06 51°16.26 2°54.332 7.7 282 17.8 102550 67
2005-08-04 10:07 51°16.253 2°54.346 6.9 291 17.8 102550 65
2005-08-04 10:08 51°16.24 2°54.358 6.9 279 17.8 102550 65
2005-08-04 10:09 51°16.226 2°54.369 5.3 262 17.8 102550 64
2005-08-04 10:10 51°16.211 2°54.379 4 260 17.7 102560 65
2005-08-04 10:11 51°16.199 2°54.39 4.4 255 17.7 102560 67
2005-08-04 10:12 51°16.187 2°54.401 4.5 250 17.6 102560 68
2005-08-04 10:13 51°16.177 2°54.415 4.7 250 17.5 102560 69
2005-08-04 10:14 51°16.167 2°54.431 4.9 247 17.4 102560 68
2005-08-04 10:15 51°16.159 2°54.446 4.6 255 17.4 102560 70
2005-08-04 10:16 51°16.151 2°54.462 6.6 267 17.5 102560 71
2005-08-04 10:17 51°16.144 2°54.478 6.3 264 17.5 102560 68
2005-08-04 10:18 51°16.135 2°54.495 7.6 275 17.6 102560 70
2005-08-04 10:19 51°16.127 2°54.513 6.7 266 17.6 102560 69
2005-08-04 10:20 51°16.117 2°54.53 6.4 261 17.6 102560 66
2005-08-04 10:21 51°16.106 2°54.548 4.8 255 17.6 102560 67
2005-08-04 10:22 51°16.096 2°54.566 5.3 261 17.5 102560 66
2005-08-04 10:23 51°16.086 2°54.582 4.9 249 17.5 102560 68
2005-08-04 10:24 51°16.075 2°54.598 4.8 258 17.4 102560 67
2005-08-04 10:25 51°16.065 2°54.614 4.9 255 17.4 102560 67
2005-08-04 10:26 51°16.055 2°54.632 6.1 262 17.4 102560 69
2005-08-04 10:27 51°16.045 2°54.65 6.1 248 17.4 102560 70
2005-08-04 10:28 51°16.036 2°54.669 4.3 255 17.5 102570 71
2005-08-04 10:29 51°16.026 2°54.687 4.8 259 17.4 102560 71
2005-08-04 10:30 51°16.017 2°54.708 5 258 17.4 102570 73
2005-08-04 10:31 51°16.015 2°54.735 7.6 266 17.3 102560 70
2005-08-04 10:32 51°16.045 2°54.768 6.2 302 17.4 102550 71
2005-08-04 10:33 51°16.082 2°54.751 8.1 336 17.5 102550 71
2005-08-04 10:34 51°16.121 2°54.695 8 354 17.5 102540 72
2005-08-04 10:35 51°16.145 2°54.623 8.1 -999 17.6 102550 71
2005-08-04 10:36 51°16.152 2°54.564 7.3 347 17.6 102550 71
2005-08-04 10:37 51°16.17 2°54.53 6.5 342 17.6 102540 70
2005-08-04 10:38 51°16.188 2°54.498 6.1 354 17.5 102540 70
2005-08-04 10:39 51°16.202 2°54.459 7.3 4 17.6 102540 70
2005-08-04 10:40 51°16.211 2°54.417 6.5 1 17.6 102540 70
2005-08-04 10:41 51°16.221 2°54.379 6.8 3 17.5 102540 70
2005-08-04 10:42 51°16.234 2°54.35 5 357 17.5 102540 71
2005-08-04 10:43 51°16.245 2°54.322 6.6 359 17.6 102540 71
2005-08-04 10:44 51°16.255 2°54.304 7 346 17.5 102540 70
2005-08-04 10:45 51°16.265 2°54.303 6.5 329 17.5 102540 69
2005-08-04 10:46 51°16.274 2°54.32 5.7 310 17.5 102550 68
2005-08-04 10:47 51°16.271 2°54.352 5.8 262 17.5 102550 69
2005-08-04 10:48 51°16.254 2°54.375 6 250 17.7 102550 71
2005-08-04 10:49 51°16.236 2°54.386 6.6 231 17.6 102550 70
2005-08-04 10:50 51°16.241 2°54.419 6.5 266 17.6 102550 73
2005-08-04 10:51 51°16.285 2°54.435 5.6 327 17.6 102540 70
2005-08-04 10:52 51°16.288 2°54.469 6.3 337 17.6 102540 69
2005-08-04 10:53 51°16.294 2°54.443 6.4 30 17.5 102540 68
2005-08-04 10:54 51°16.279 2°54.397 7 25 17.4 102530 69
2005-08-04 10:55 51°16.271 2°54.358 6.6 32 17.3 102540 68
2005-08-04 10:56 51°16.261 2°54.335 6.8 33 17.2 102540 71
2005-08-04 10:57 51°16.257 2°54.32 6.4 22 17.2 102540 70
2005-08-04 10:58 51°16.257 2°54.322 5.8 25 17.3 102540 70
2005-08-04 10:59 51°16.256 2°54.339 6.4 24 17.2 102540 71
2005-08-04 11:00 51°16.255 2°54.366 5.6 24 17.2 102530 71
2005-08-04 11:01 51°16.256 2°54.401 5.6 52 17.3 102530 72
2005-08-04 11:02 51°16.257 2°54.44 5 80 17.2 102530 69
2005-08-04 11:03 51°16.25 2°54.464 7.2 60 17.1 102530 71
2005-08-04 11:04 51°16.247 2°54.423 7.7 2 17.1 102520 69
2005-08-04 11:05 51°16.271 2°54.38 7.5 352 17.3 102510 68
2005-08-04 11:06 51°16.295 2°54.34 6.7 347 17.4 102510 68
2005-08-04 11:07 51°16.317 2°54.306 6.6 351 17.4 102510 66
2005-08-04 11:08 51°16.339 2°54.268 7.4 3 17.5 102510 65
2005-08-04 11:09 51°16.353 2°54.236 6.7 357 17.5 102510 65
2005-08-04 11:10 51°16.368 2°54.207 6.2 345 17.6 102510 68
2005-08-04 11:11 51°16.391 2°54.177 7 342 17.6 102520 68
2005-08-04 11:12 51°16.417 2°54.146 6.9 345 17.7 102520 69
2005-08-04 11:13 51°16.441 2°54.112 7 346 17.7 102520 67
2005-08-04 11:14 51°16.464 2°54.076 6.1 349 17.8 102530 66
2005-08-04 11:15 51°16.486 2°54.039 7.2 348 17.8 102520 68
2005-08-04 11:16 51°16.508 2°54.003 6.3 350 17.9 102520 70
2005-08-04 11:17 51°16.532 2°53.965 7.4 345 17.9 102520 69
2005-08-04 11:18 51°16.555 2°53.928 7.1 345 17.8 102530 67
2005-08-04 11:19 51°16.576 2°53.892 6 344 17.9 102520 70
2005-08-04 11:20 51°16.586 2°53.836 8.1 34 17.9 102520 69
2005-08-04 11:21 51°16.522 2°53.869 4.4 114 17.7 102510 68
2005-08-04 11:22 51°16.437 2°54.016 5.8 81 17.6 102520 68
2005-08-04 11:23 51°16.349 2°54.149 3.9 113 17.4 102520 65
2005-08-04 11:24 51°16.296 2°54.248 5.8 95 17.4 102520 68
2005-08-04 11:25 51°16.256 2°54.306 4.9 90 17.4 102520 64
2005-08-04 11:26 51°16.26 2°54.351 5.3 84 17.4 102520 67
2005-08-04 11:27 51°16.266 2°54.394 6 89 17.4 102520 69
2005-08-04 11:28 51°16.272 2°54.438 5.3 83 17.3 102530 67
2005-08-04 11:29 51°16.27 2°54.477 5.8 59 17.3 102520 66
2005-08-04 11:30 51°16.247 2°54.405 8.5 357 17.3 102520 70
2005-08-04 11:31 51°16.351 2°54.243 10.8 345 17.5 102510 69
2005-08-04 11:32 51°16.496 2°54.019 11.3 341 17.6 102490 68
2005-08-04 11:33 51°16.647 2°53.791 12.1 341 17.6 102500 65
2005-08-04 11:34 51°16.794 2°53.558 13.2 344 17.7 102500 68
2005-08-04 11:35 51°16.943 2°53.332 11.8 346 17.8 102500 64
2005-08-04 11:36 51°17.105 2°53.117 11 344 17.8 102500 63
2005-08-04 11:37 51°17.265 2°52.892 11.1 347 17.8 102500 65
2005-08-04 11:38 51°17.411 2°52.659 11.6 343 17.8 102510 65
2005-08-04 11:39 51°17.56 2°52.419 10.9 344 17.8 102500 65
2005-08-04 11:40 51°17.712 2°52.185 11 338 17.8 102510 65
2005-08-04 11:41 51°17.864 2°51.956 10.8 344 17.7 102510 65
2005-08-04 11:42 51°18.018 2°51.725 12 344 17.8 102510 66
2005-08-04 11:43 51°18.173 2°51.494 11.9 346 17.7 102500 63
2005-08-04 11:44 51°18.329 2°51.257 11.8 342 17.8 102500 64
2005-08-04 11:45 51°18.431 2°51.101 8.3 345 17.8 102510 64
2005-08-04 11:46 51°18.473 2°51.016 6.9 343 17.8 102520 65
2005-08-04 11:47 51°18.492 2°51.013 5.9 347 17.8 102520 66
2005-08-04 11:48 51°18.504 2°51.044 5.4 7 17.8 102530 67
2005-08-04 11:49 51°18.513 2°51.081 6.1 357 17.8 102530 66
2005-08-04 11:50 51°18.523 2°51.127 5.4 7 17.8 102540 64
2005-08-04 11:51 51°18.533 2°51.173 5.4 15 17.8 102530 64
2005-08-04 11:52 51°18.544 2°51.222 6.1 32 17.7 102530 64
2005-08-04 11:53 51°18.556 2°51.27 5.2 51 17.6 102540 66
2005-08-04 11:54 51°18.561 2°51.302 6.8 35 17.4 102530 68
2005-08-04 11:55 51°18.56 2°51.229 8.2 351 17.4 102540 68
2005-08-04 11:56 51°18.611 2°51.157 8.2 330 17.5 102530 69
2005-08-04 11:57 51°18.666 2°51.121 7.8 334 17.6 102520 68
2005-08-04 11:58 51°18.714 2°51.092 8.3 329 17.6 102520 68
2005-08-04 11:59 51°18.759 2°51.067 7.6 333 17.6 102520 66
2005-08-04 12:00 51°18.805 2°51.051 6.8 317 17.6 102530 65
2005-08-04 12:01 51°18.849 2°51.041 8.2 324 17.7 102530 66
2005-08-04 12:02 51°18.894 2°51.031 6.8 331 17.7 102530 67
2005-08-04 12:03 51°18.933 2°51.02 7.8 324 17.7 102530 68
2005-08-04 12:04 51°18.974 2°51.013 6.5 322 17.7 102540 69
2005-08-04 12:05 51°19.016 2°51.007 6.2 323 17.8 102530 68
2005-08-04 12:06 51°19.056 2°51.002 7.7 322 17.8 102530 67
2005-08-04 12:07 51°19.097 2°50.998 6.6 322 17.7 102540 66
2005-08-04 12:08 51°19.141 2°50.988 6.8 332 17.7 102530 67
2005-08-04 12:09 51°19.163 2°50.887 9.1 34 17.7 102530 67
2005-08-04 12:10 51°19.067 2°50.873 6.6 72 17.5 102520 69
2005-08-04 12:11 51°18.917 2°50.927 7.9 64 17.4 102530 70
2005-08-04 12:12 51°18.755 2°50.967 7.4 58 17.3 102520 71
2005-08-04 12:13 51°18.657 2°50.987 7.2 75 17.3 102530 70
2005-08-04 12:14 51°18.588 2°50.998 5.7 79 17.3 102530 70
2005-08-04 12:15 51°18.526 2°51.025 6.4 75 17.3 102530 70
2005-08-04 12:16 51°18.498 2°51.032 4.9 72 17.2 102540 69
2005-08-04 12:17 51°18.498 2°51.056 6.6 59 17.2 102540 72
2005-08-04 12:18 51°18.496 2°51.08 7.1 67 17.2 102540 70
2005-08-04 12:19 51°18.427 2°51.137 5.3 87 17.2 102530 70
2005-08-04 12:20 51°18.263 2°51.338 8 60 17.2 102540 70
2005-08-04 12:21 51°18.079 2°51.526 8.1 69 17.2 102530 72
2005-08-04 12:22 51°17.899 2°51.706 7.5 65 17.2 102540 69
2005-08-04 12:23 51°17.711 2°51.898 6.3 79 17.2 102540 68
2005-08-04 12:24 51°17.519 2°52.057 9.2 60 17.2 102540 68
2005-08-04 12:25 51°17.322 2°52.157 9.2 64 17.2 102530 70
2005-08-04 12:26 51°17.111 2°52.264 8 68 17.2 102530 69
2005-08-04 12:27 51°16.907 2°52.372 9.2 56 17.3 102540 71
2005-08-04 12:28 51°16.711 2°52.483 8.6 61 17.2 102540 69
2005-08-04 12:29 51°16.506 2°52.605 8.4 50 17.2 102550 70
2005-08-04 12:30 51°16.299 2°52.731 8.6 57 17.2 102540 69
2005-08-04 12:31 51°16.101 2°52.878 7.9 63 17.2 102540 68
2005-08-04 12:32 51°15.907 2°53.032 8 62 17.2 102550 68
2005-08-04 12:33 51°15.716 2°53.179 5.7 71 17.2 102550 68
2005-08-04 12:34 51°15.521 2°53.334 6.8 63 17.3 102550 70
2005-08-04 12:35 51°15.347 2°53.531 5.2 81 17.3 102550 69
2005-08-04 12:36 51°15.176 2°53.755 6.1 68 17.3 102550 70
2005-08-04 12:37 51°15.003 2°53.973 5.6 68 17.3 102550 70
2005-08-04 12:38 51°14.826 2°54.191 5.3 74 17.3 102540 68
2005-08-04 12:39 51°14.667 2°54.435 3.9 77 17.3 102540 66
2005-08-04 12:40 51°14.518 2°54.708 3.8 79 17.3 102540 68
2005-08-04 12:41 51°14.391 2°54.999 3.2 95 17.3 102540 66
2005-08-04 12:42 51°14.284 2°55.225 3.4 96 17.4 102550 68
2005-08-04 12:43 51°14.169 2°55.385 5.7 98 17.4 102550 68
2005-08-04 12:44 51°14.055 2°55.471 4.1 66 17.5 102550 67
2005-08-04 12:45 51°13.959 2°55.542 5 64 17.6 102550 65
2005-08-04 12:46 51°13.861 2°55.619 3.7 26 17.7 102550 63
2005-08-04 12:47 51°13.78 2°55.687 1.1 163 17.8 102550 63
2005-08-04 12:48 51°13.738 2°55.699 3.1 99 17.9 102550 64
2005-08-04 12:49 51°13.736 2°55.694 6.4 25 18 102550 62
2005-08-04 12:50 51°13.737 2°55.715 5.2 16 18 102550 62
2005-08-04 12:51 51°13.736 2°55.712 4.7 289 17.9 102560 62
2005-08-04 12:52 51°13.71 2°55.789 4.4 340 18 102560 62
2005-08-04 12:53 51°13.669 2°55.883 3.1 304 18.1 102560 62
2005-08-04 12:54 51°13.653 2°55.911 4 331 18.2 102550 62
2005-08-04 12:55 51°13.668 2°55.902 5.5 334 18.3 102550 62
2005-08-04 12:56 51°13.689 2°55.884 4.6 294 18.2 102550 62
2005-08-04 12:57 51°13.686 2°55.886 4 287 18.3 102550 63
2005-08-04 12:58 51°13.692 2°55.884 5.8 346 18.3 102550 63
2005-08-04 12:59 51°13.693 2°55.885 5.6 325 18.4 102550 62
2005-08-04 13:00 51°13.694 2°55.887 4.4 300 18.4 102550 63
2005-08-04 13:01 51°13.693 2°55.891 5.3 3 18.5 102560 62
2005-08-16 09:30 51°13.691 2°55.896 1.7 45 16.7 102350 68
2005-08-16 09:31 51°13.69 2°55.895 2.3 97 16.9 102350 67
2005-08-16 09:32 51°13.691 2°55.894 2.6 44 16.9 102350 67
2005-08-16 09:33 51°13.691 2°55.894 2.5 110 17 102350 66
2005-08-16 09:34 51°13.691 2°55.894 2.7 73 17 102350 67
2005-08-16 09:35 51°13.691 2°55.894 1.8 100 16.9 102350 66
2005-08-16 09:36 51°13.691 2°55.895 1.4 68 17 102350 67
2005-08-16 09:37 51°13.691 2°55.895 2.4 47 17 102350 66
2005-08-16 09:38 51°13.69 2°55.896 2.4 65 17 102350 66
2005-08-16 09:39 51°13.69 2°55.896 2.2 29 17 102350 66
2005-08-16 09:40 51°13.69 2°55.896 2.3 53 17 102350 66
2005-08-16 09:41 51°13.69 2°55.896 2.5 45 17.1 102350 65
2005-08-16 09:42 51°13.691 2°55.895 3.5 45 17 102350 66
2005-08-16 09:43 51°13.69 2°55.895 3.5 46 16.9 102350 65
2005-08-16 09:44 51°13.69 2°55.895 2.7 64 16.9 102350 66
2005-08-16 09:45 51°13.691 2°55.895 1.5 68 16.9 102350 67
2005-08-16 09:46 51°13.691 2°55.895 2.9 44 17 102350 67
2005-08-16 09:47 51°13.691 2°55.895 2.6 37 17.1 102340 67
2005-08-16 09:48 51°13.691 2°55.896 3.5 63 17 102340 66
2005-08-16 09:49 51°13.69 2°55.896 1.8 66 16.9 102350 67
2005-08-16 09:50 51°13.69 2°55.896 3 98 16.9 102340 67
2005-08-16 09:51 51°13.69 2°55.896 2.8 65 17 102350 66
2005-08-16 09:52 51°13.69 2°55.896 2.3 51 17 102340 66
2005-08-16 09:53 51°13.69 2°55.896 2.6 58 17.1 102350 66
2005-08-16 09:54 51°13.69 2°55.896 3 44 17.1 102350 66
2005-08-16 09:55 51°13.69 2°55.896 2.3 92 16.9 102350 66
2005-08-16 09:56 51°13.69 2°55.895 2.8 76 16.9 102350 67
2005-08-16 09:57 51°13.691 2°55.895 3.3 66 17 102340 66
2005-08-16 09:58 51°13.692 2°55.895 3 41 17 102340 66
2005-08-16 09:59 51°13.691 2°55.895 2.4 47 16.9 102340 66
2005-08-16 10:00 51°13.691 2°55.896 3.1 64 16.9 102340 67
2005-08-16 10:01 51°13.69 2°55.896 2.7 50 17 102340 67
2005-08-16 10:02 51°13.69 2°55.897 3 43 17 102340 66
2005-08-16 10:03 51°13.691 2°55.897 4.2 53 16.9 102340 67
2005-08-16 10:04 51°13.69 2°55.896 4.4 73 16.8 102340 66
2005-08-16 10:05 51°13.69 2°55.897 2.5 44 16.8 102340 67
2005-08-16 10:06 51°13.69 2°55.896 3.1 49 16.8 102340 66
2005-08-16 10:07 51°13.69 2°55.896 2.1 75 16.9 102330 68
2005-08-16 10:08 51°13.69 2°55.896 1.7 51 17 102340 67
2005-08-16 10:09 51°13.691 2°55.896 3.5 53 17.2 102340 66
2005-08-16 10:10 51°13.691 2°55.896 3.2 29 17.1 102340 66
2005-08-16 10:11 51°13.692 2°55.896 1.7 19 17 102330 66
2005-08-16 10:12 51°13.692 2°55.896 3.4 39 16.9 102340 67
2005-08-16 10:13 51°13.692 2°55.897 2.6 43 16.9 102340 67
2005-08-16 10:14 51°13.692 2°55.896 3.7 39 17 102340 68
2005-08-16 10:15 51°13.692 2°55.896 3.5 57 17.1 102340 67
2005-08-16 10:16 51°13.692 2°55.896 1.8 44 17.1 102340 66
2005-08-16 10:17 51°13.692 2°55.896 1.5 106 17.1 102340 66
2005-08-16 10:18 51°13.692 2°55.897 2.8 73 17.2 102340 65
2005-08-16 10:19 51°13.692 2°55.896 3.1 30 17.3 102330 65
2005-08-16 10:20 51°13.692 2°55.896 3.6 50 17.4 102330 65
2005-08-16 10:21 51°13.692 2°55.895 3.5 69 17.5 102330 65
2005-08-16 10:22 51°13.692 2°55.895 2.4 32 17.4 102330 65
2005-08-16 10:23 51°13.692 2°55.894 3.2 56 17.3 102330 65
2005-08-16 10:24 51°13.691 2°55.894 1.8 72 17.1 102330 66
2005-08-16 10:25 51°13.691 2°55.895 2.4 53 17.1 102330 67
2005-08-16 10:26 51°13.692 2°55.895 2.8 82 17.1 102330 66
2005-08-16 10:27 51°13.692 2°55.895 3.2 70 17.1 102330 66
2005-08-16 10:28 51°13.691 2°55.895 1.6 9 17.2 102330 66
2005-08-16 10:29 51°13.692 2°55.894 2.6 47 17.2 102330 66
2005-08-16 10:30 51°13.692 2°55.894 2 41 17.2 102330 65
2005-08-16 10:31 51°13.691 2°55.894 4.1 85 17.2 102330 66
2005-08-16 10:32 51°13.691 2°55.894 1.8 64 17.3 102330 65
2005-08-16 10:33 51°13.691 2°55.894 2.6 23 17.2 102330 66
2005-08-16 10:34 51°13.691 2°55.894 3.6 32 17.2 102320 66
2005-08-16 10:35 51°13.692 2°55.894 2.7 21 17.1 102330 65
2005-08-16 10:36 51°13.692 2°55.894 3.4 69 17.1 102330 65
2005-08-16 10:37 51°13.691 2°55.894 2.8 51 17.1 102330 65
2005-08-16 10:38 51°13.691 2°55.894 2.1 37 17.1 102330 65
2005-08-16 10:39 51°13.691 2°55.895 2.9 52 17.2 102330 66
2005-08-16 10:40 51°13.691 2°55.895 2.3 44 17.2 102330 66
2005-08-16 10:41 51°13.691 2°55.895 1.4 28 17.1 102330 66
2005-08-16 10:42 51°13.691 2°55.895 1.8 10 17 102330 66
2005-08-16 10:43 51°13.691 2°55.894 3.2 66 17.1 102330 67
2005-08-16 10:44 51°13.691 2°55.895 2.5 30 17.1 102330 65
2005-08-16 10:45 51°13.691 2°55.895 2.6 37 17.1 102320 66
2005-08-16 10:46 51°13.691 2°55.895 3.2 45 17.2 102320 66
2005-08-16 10:47 51°13.691 2°55.896 4.3 28 17.3 102320 67
2005-08-16 10:48 51°13.691 2°55.895 2.7 38 17.2 102320 66
2005-08-16 10:49 51°13.691 2°55.895 3.4 26 17.2 102310 66
2005-08-16 10:50 51°13.691 2°55.895 3.2 34 17.2 102320 67
2005-08-16 10:51 51°13.691 2°55.895 3.6 39 17.3 102320 66
2005-08-16 10:52 51°13.691 2°55.895 2.5 60 17.2 102320 67
2005-08-16 10:53 51°13.691 2°55.895 2.5 76 17.2 102320 67
2005-08-16 10:54 51°13.691 2°55.895 3.7 59 17.2 102320 67
2005-08-16 10:55 51°13.691 2°55.895 2.6 63 17.2 102320 67
2005-08-16 10:56 51°13.691 2°55.894 2.2 69 17.2 102320 67
2005-08-16 10:57 51°13.691 2°55.894 2 56 17.3 102320 68
2005-08-16 10:58 51°13.691 2°55.894 2 27 17.4 102320 67
2005-08-16 10:59 51°13.691 2°55.895 3.7 36 17.5 102310 66
2005-08-16 11:00 51°13.691 2°55.895 1.7 43 17.5 102320 66
2005-08-16 11:01 51°13.691 2°55.896 3.3 26 17.6 102320 66
2005-08-16 11:02 51°13.692 2°55.896 1.9 36 17.6 102310 65
2005-08-16 11:03 51°13.691 2°55.896 2.6 61 17.6 102310 66
2005-08-16 11:04 51°13.691 2°55.895 4 59 17.5 102310 64
2005-08-16 11:05 51°13.691 2°55.895 2.5 80 17.3 102310 66
2005-08-16 11:06 51°13.692 2°55.895 3 60 17.3 102310 67
2005-08-16 11:07 51°13.692 2°55.895 3 47 17.3 102310 67
2005-08-16 11:08 51°13.692 2°55.895 2.5 86 17.3 102310 66
2005-08-16 11:09 51°13.691 2°55.895 3.3 49 17.4 102310 66
2005-08-16 11:10 51°13.691 2°55.896 2.8 53 17.3 102310 66
2005-08-16 11:11 51°13.691 2°55.896 3.9 52 17.3 102310 67
2005-08-16 11:12 51°13.691 2°55.895 2.1 56 17.4 102310 67
2005-08-16 11:13 51°13.692 2°55.895 4.7 56 17.3 102310 67
2005-08-16 11:14 51°13.691 2°55.895 3.4 57 17.4 102310 67
2005-08-16 11:15 51°13.691 2°55.895 3.1 36 17.4 102310 67
2005-08-16 11:16 51°13.691 2°55.895 2.9 44 17.4 102310 66
2005-08-16 11:17 51°13.691 2°55.895 3.8 23 17.4 102310 66
2005-08-16 11:18 51°13.691 2°55.894 4.2 61 17.3 102310 67
2005-08-16 11:19 51°13.69 2°55.894 3.7 50 17.3 102310 66
2005-08-16 11:20 51°13.691 2°55.895 2.4 46 17.1 102310 67
2005-08-16 11:21 51°13.691 2°55.896 2.9 34 17.1 102300 67
2005-08-16 11:22 51°13.691 2°55.895 3.7 38 17.2 102300 67
2005-08-16 11:23 51°13.692 2°55.896 3.4 70 17.2 102300 67
2005-08-16 11:24 51°13.691 2°55.896 -999 49 -999 -999 -999
2005-08-16 11:25 51°13.692 2°55.896 3.8 41 17.3 102300 67
2005-08-16 11:26 51°13.692 2°55.896 2.8 10 17.3 102300 66
2005-08-16 11:27 51°13.691 2°55.896 3.5 19 17.3 102300 66
2005-08-16 11:28 51°13.691 2°55.896 3.1 44 17.3 102300 67
2005-08-16 11:29 51°13.691 2°55.896 3.6 43 17.3 102300 66
2005-08-16 11:30 51°13.692 2°55.896 1.3 34 17.1 102300 68
2005-08-16 11:31 51°13.691 2°55.896 3.3 31 17.2 102300 67
2005-08-16 11:32 51°13.691 2°55.896 2.6 60 17.3 102310 67
2005-08-16 11:33 51°13.691 2°55.896 3.1 35 17.4 102310 66
2005-08-16 11:34 51°13.692 2°55.896 3.1 80 17.3 102310 68
2005-08-16 11:35 51°13.691 2°55.896 3.3 62 17.4 102310 67
2005-08-16 11:36 51°13.691 2°55.897 3.1 62 17.5 102300 65
2005-08-16 11:37 51°13.691 2°55.897 4.6 59 17.5 102300 65
2005-08-16 11:38 51°13.69 2°55.896 4.2 87 17.5 102300 65
2005-08-16 11:39 51°13.69 2°55.895 3 34 17.4 102300 65
2005-08-16 11:40 51°13.69 2°55.895 2.9 54 17.5 102310 66
2005-08-16 11:41 51°13.691 2°55.896 2 48 17.5 102300 66
2005-08-16 11:42 51°13.69 2°55.896 2.8 75 17.7 102310 66
2005-08-16 11:43 51°13.69 2°55.894 2.1 29 17.7 102300 66
2005-08-16 11:44 51°13.703 2°55.856 3.5 65 17.8 102310 65
2005-08-16 11:45 51°13.698 2°55.757 2.2 101 17.8 102300 64
2005-08-16 11:46 51°13.708 2°55.754 4.9 150 17.6 102310 65
2005-08-16 11:47 51°13.705 2°55.752 3.2 201 17.5 102300 67
2005-08-16 11:48 51°13.707 2°55.753 2.3 245 17.7 102310 68
2005-08-16 11:49 51°13.682 2°55.824 3.3 290 18 102300 66
2005-08-16 11:50 51°13.654 2°55.916 4.4 300 18.1 102300 64
2005-08-16 11:51 51°13.628 2°56.002 2.9 283 18.2 102300 63
2005-08-16 11:52 51°13.613 2°56.057 0.9 256 18.2 102300 63
2005-08-16 11:53 51°13.61 2°56.065 3.3 217 18.3 102300 63
2005-08-16 11:54 51°13.61 2°56.066 4.8 271 18.3 102300 64
2005-08-16 11:55 51°13.61 2°56.065 2.3 233 18.3 102300 62
2005-08-16 11:56 51°13.609 2°56.065 3.8 226 18.3 102300 63
2005-08-16 11:57 51°13.609 2°56.065 3.9 239 18.2 102300 62
2005-08-16 11:58 51°13.609 2°56.066 3.6 228 18.2 102300 63
2005-08-16 11:59 51°13.609 2°56.065 3.7 235 18.3 102300 63
2005-08-16 12:00 51°13.609 2°56.065 3.9 237 18.2 102300 63
2005-08-16 12:01 51°13.609 2°56.065 2.1 288 18.2 102300 63
2005-08-16 12:02 51°13.609 2°56.066 1.7 248 18.4 102300 64
2005-08-16 12:03 51°13.609 2°56.066 3 227 18.4 102300 63
2005-08-16 12:04 51°13.609 2°56.066 3.8 239 18.5 102300 63
2005-08-16 12:05 51°13.607 2°56.071 2.1 248 18.5 102300 62
2005-08-16 12:06 51°13.604 2°56.076 2.7 254 18.5 102300 63
2005-08-16 12:07 51°13.599 2°56.079 1.2 258 18.4 102290 62
2005-08-16 12:08 51°13.597 2°56.087 1.2 208 18.5 102300 62
2005-08-16 12:09 51°13.595 2°56.094 2.6 279 18.6 102290 63
2005-08-16 12:10 51°13.596 2°56.097 2.5 253 18.8 102300 60
2005-08-16 12:11 51°13.597 2°56.097 3.7 254 18.8 102290 60
2005-08-16 12:12 51°13.596 2°56.099 2.5 278 18.5 102290 61
2005-08-16 12:13 51°13.595 2°56.103 3.2 267 18.5 102290 63